sensor_id;sensor_type;location;lat;lon;timestamp;pressure;altitude;pressure_sealevel;temperature;humidity
38880;BME280;25887;30.194;-97.880;2023-12-14T00:02:05;99637.97;;;15.05;54.16
38880;BME280;25887;30.194;-97.880;2023-12-14T00:04:32;99641.44;;;15.03;54.23
38880;BME280;25887;30.194;-97.880;2023-12-14T00:07:04;99641.41;;;15.01;53.94
38880;BME280;25887;30.194;-97.880;2023-12-14T00:09:30;99652.63;;;15.00;54.13
38880;BME280;25887;30.194;-97.880;2023-12-14T00:11:56;99659.53;;;14.98;53.98
38880;BME280;25887;30.194;-97.880;2023-12-14T00:14:23;99671.59;;;14.99;53.96
38880;BME280;25887;30.194;-97.880;2023-12-14T00:16:49;99673.31;;;15.00;53.80
38880;BME280;25887;30.194;-97.880;2023-12-14T00:19:19;99688.84;;;14.97;53.82
38880;BME280;25887;30.194;-97.880;2023-12-14T00:21:45;99693.16;;;14.97;53.95
38880;BME280;25887;30.194;-97.880;2023-12-14T00:24:11;99690.59;;;14.98;53.74
38880;BME280;25887;30.194;-97.880;2023-12-14T00:26:38;99694.03;;;14.96;53.77
38880;BME280;25887;30.194;-97.880;2023-12-14T00:29:04;99678.50;;;14.94;53.77
38880;BME280;25887;30.194;-97.880;2023-12-14T00:31:30;99690.56;;;14.94;53.74
38880;BME280;25887;30.194;-97.880;2023-12-14T00:34:01;99696.63;;;14.94;53.92
38880;BME280;25887;30.194;-97.880;2023-12-14T00:36:30;99700.94;;;14.95;53.78
38880;BME280;25887;30.194;-97.880;2023-12-14T00:38:58;99700.03;;;14.93;53.52
38880;BME280;25887;30.194;-97.880;2023-12-14T00:41:25;99700.06;;;14.95;53.68
38880;BME280;25887;30.194;-97.880;2023-12-14T00:43:51;99700.91;;;14.92;53.60
38880;BME280;25887;30.194;-97.880;2023-12-14T00:46:20;99712.13;;;14.93;53.63
38880;BME280;25887;30.194;-97.880;2023-12-14T00:48:46;99713.84;;;14.92;53.34
38880;BME280;25887;30.194;-97.880;2023-12-14T00:51:12;99730.22;;;14.93;53.65
38880;BME280;25887;30.194;-97.880;2023-12-14T00:53:42;99721.59;;;14.92;53.42
38880;BME280;25887;30.194;-97.880;2023-12-14T00:56:09;99735.41;;;14.93;53.38
38880;BME280;25887;30.194;-97.880;2023-12-14T00:58:35;99735.41;;;14.91;53.36
38880;BME280;25887;30.194;-97.880;2023-12-14T01:01:10;99725.06;;;14.91;53.15
38880;BME280;25887;30.194;-97.880;2023-12-14T01:13:42;99727.63;;;14.84;53.18
38880;BME280;25887;30.194;-97.880;2023-12-14T01:22:55;99719.00;;;14.83;53.14
38880;BME280;25887;30.194;-97.880;2023-12-14T01:28:43;99721.56;;;14.83;52.79
38880;BME280;25887;30.194;-97.880;2023-12-14T01:31:09;99732.78;;;14.82;53.17
38880;BME280;25887;30.194;-97.880;2023-12-14T01:33:36;99735.38;;;14.85;52.88
38880;BME280;25887;30.194;-97.880;2023-12-14T01:36:23;99738.84;;;14.89;53.05
38880;BME280;25887;30.194;-97.880;2023-12-14T01:38:59;99743.16;;;14.88;52.19
38880;BME280;25887;30.194;-97.880;2023-12-14T01:41:54;99738.00;;;14.90;52.67
38880;BME280;25887;30.194;-97.880;2023-12-14T01:44:37;99745.75;;;14.88;52.51
38880;BME280;25887;30.194;-97.880;2023-12-14T01:47:06;99741.44;;;14.87;52.65
38880;BME280;25887;30.194;-97.880;2023-12-14T01:49:32;99752.66;;;14.89;52.55
38880;BME280;25887;30.194;-97.880;2023-12-14T01:51:59;99753.53;;;14.91;52.64
38880;BME280;25887;30.194;-97.880;2023-12-14T01:55:04;99761.31;;;14.96;52.68
38880;BME280;25887;30.194;-97.880;2023-12-14T01:57:31;99766.50;;;14.94;52.48
38880;BME280;25887;30.194;-97.880;2023-12-14T02:00:48;99767.34;;;14.98;52.48
38880;BME280;25887;30.194;-97.880;2023-12-14T02:03:48;99763.03;;;15.01;52.24
38880;BME280;25887;30.194;-97.880;2023-12-14T02:06:23;99764.78;;;14.99;52.12
38880;BME280;25887;30.194;-97.880;2023-12-14T02:08:49;99756.16;;;14.99;52.40
38880;BME280;25887;30.194;-97.880;2023-12-14T02:11:16;99751.81;;;14.98;51.92
38880;BME280;25887;30.194;-97.880;2023-12-14T02:13:42;99767.34;;;14.96;51.63
38880;BME280;25887;30.194;-97.880;2023-12-14T02:16:08;99769.09;;;14.96;51.41
38880;BME280;25887;30.194;-97.880;2023-12-14T02:18:34;99770.81;;;14.95;51.33
38880;BME280;25887;30.194;-97.880;2023-12-14T02:21:12;99769.09;;;14.96;51.46
38880;BME280;25887;30.194;-97.880;2023-12-14T02:23:45;99763.91;;;14.96;50.93
38880;BME280;25887;30.194;-97.880;2023-12-14T02:26:12;99763.91;;;14.94;50.48
38880;BME280;25887;30.194;-97.880;2023-12-14T02:28:39;99767.34;;;14.95;50.48
38880;BME280;25887;30.194;-97.880;2023-12-14T02:37:44;99794.06;;;14.92;49.91
38880;BME280;25887;30.194;-97.880;2023-12-14T02:40:30;99788.88;;;14.89;49.95
38880;BME280;25887;30.194;-97.880;2023-12-14T02:50:00;99813.94;;;14.95;49.70
38880;BME280;25887;30.194;-97.880;2023-12-14T02:53:17;99814.75;;;14.92;49.48
38880;BME280;25887;30.194;-97.880;2023-12-14T03:12:58;99810.41;;;14.84;48.27
38880;BME280;25887;30.194;-97.880;2023-12-14T03:15:25;99809.53;;;14.80;48.35
38880;BME280;25887;30.194;-97.880;2023-12-14T03:21:21;99797.47;;;14.82;48.17
38880;BME280;25887;30.194;-97.880;2023-12-14T03:27:35;99791.44;;;14.83;47.60
38880;BME280;25887;30.194;-97.880;2023-12-14T03:30:44;99802.66;;;14.82;47.56
38880;BME280;25887;30.194;-97.880;2023-12-14T03:33:26;99799.16;;;14.77;47.48
38880;BME280;25887;30.194;-97.880;2023-12-14T03:35:53;99807.78;;;14.77;47.02
38880;BME280;25887;30.194;-97.880;2023-12-14T03:38:19;99805.19;;;14.77;46.93
38880;BME280;25887;30.194;-97.880;2023-12-14T03:41:04;99808.69;;;14.80;46.91
38880;BME280;25887;30.194;-97.880;2023-12-14T03:43:30;99809.50;;;14.77;46.79
38880;BME280;25887;30.194;-97.880;2023-12-14T03:46:25;99811.25;;;14.80;46.50
38880;BME280;25887;30.194;-97.880;2023-12-14T03:49:09;99804.31;;;14.74;46.41
38880;BME280;25887;30.194;-97.880;2023-12-14T03:51:35;99807.78;;;14.74;46.36
38880;BME280;25887;30.194;-97.880;2023-12-14T03:54:23;99817.25;;;14.77;46.53
38880;BME280;25887;30.194;-97.880;2023-12-14T03:57:27;99816.41;;;14.75;46.56
38880;BME280;25887;30.194;-97.880;2023-12-14T04:00:20;99806.06;;;14.76;46.35
38880;BME280;25887;30.194;-97.880;2023-12-14T04:02:49;99799.16;;;14.71;46.38
38880;BME280;25887;30.194;-97.880;2023-12-14T04:05:16;99795.66;;;14.69;46.23
38880;BME280;25887;30.194;-97.880;2023-12-14T04:07:42;99799.97;;;14.68;46.06
38880;BME280;25887;30.194;-97.880;2023-12-14T04:10:10;99808.59;;;14.66;46.06
38880;BME280;25887;30.194;-97.880;2023-12-14T04:12:37;99814.56;;;14.62;46.06
38880;BME280;25887;30.194;-97.880;2023-12-14T04:15:16;99824.06;;;14.61;46.13
38880;BME280;25887;30.194;-97.880;2023-12-14T04:17:42;99823.16;;;14.55;46.46
38880;BME280;25887;30.194;-97.880;2023-12-14T04:20:09;99821.41;;;14.52;46.24
38880;BME280;25887;30.194;-97.880;2023-12-14T04:22:35;99823.97;;;14.47;46.51
38880;BME280;25887;30.194;-97.880;2023-12-14T04:25:32;99823.94;;;14.46;46.57
38880;BME280;25887;30.194;-97.880;2023-12-14T04:28:28;99813.56;;;14.41;46.62
38880;BME280;25887;30.194;-97.880;2023-12-14T04:31:34;99817.81;;;14.33;46.81
38880;BME280;25887;30.194;-97.880;2023-12-14T04:40:44;99825.44;;;14.16;46.70
38880;BME280;25887;30.194;-97.880;2023-12-14T04:43:11;99833.19;;;14.16;47.14
38880;BME280;25887;30.194;-97.880;2023-12-14T04:45:38;99840.94;;;14.16;47.15
38880;BME280;25887;30.194;-97.880;2023-12-14T04:48:05;99830.56;;;14.15;46.66
38880;BME280;25887;30.194;-97.880;2023-12-14T04:50:31;99836.59;;;14.14;46.85
38880;BME280;25887;30.194;-97.880;2023-12-14T04:52:58;99838.28;;;14.12;46.88
38880;BME280;25887;30.194;-97.880;2023-12-14T04:55:26;99839.16;;;14.11;47.06
38880;BME280;25887;30.194;-97.880;2023-12-14T04:57:57;99843.47;;;14.12;47.23
38880;BME280;25887;30.194;-97.880;2023-12-14T05:00:24;99841.72;;;14.11;47.11
38880;BME280;25887;30.194;-97.880;2023-12-14T05:02:50;99849.47;;;14.09;47.35
38880;BME280;25887;30.194;-97.880;2023-12-14T05:05:20;99847.78;;;14.11;46.81
38880;BME280;25887;30.194;-97.880;2023-12-14T05:08:09;99845.19;;;14.13;47.01
38880;BME280;25887;30.194;-97.880;2023-12-14T05:10:45;99847.78;;;14.11;46.98
38880;BME280;25887;30.194;-97.880;2023-12-14T05:14:19;99846.03;;;14.12;46.98
38880;BME280;25887;30.194;-97.880;2023-12-14T05:21:50;99842.59;;;14.11;47.13
38880;BME280;25887;30.194;-97.880;2023-12-14T05:24:59;99834.78;;;14.07;47.47
38880;BME280;25887;30.194;-97.880;2023-12-14T05:28:22;99824.44;;;14.04;47.29
38880;BME280;25887;30.194;-97.880;2023-12-14T05:31:18;99820.06;;;13.98;47.55
38880;BME280;25887;30.194;-97.880;2023-12-14T05:33:51;99825.25;;;14.00;47.36
38880;BME280;25887;30.194;-97.880;2023-12-14T05:36:17;99824.38;;;13.99;47.21
38880;BME280;25887;30.194;-97.880;2023-12-14T05:38:45;99829.56;;;13.99;47.51
38880;BME280;25887;30.194;-97.880;2023-12-14T05:41:20;99833.03;;;14.03;47.57
38880;BME280;25887;30.194;-97.880;2023-12-14T05:44:10;99827.88;;;14.01;47.72
38880;BME280;25887;30.194;-97.880;2023-12-14T05:46:36;99818.34;;;14.00;47.79
38880;BME280;25887;30.194;-97.880;2023-12-14T05:49:03;99823.53;;;13.99;47.92
38880;BME280;25887;30.194;-97.880;2023-12-14T05:51:32;99822.66;;;14.00;47.96
38880;BME280;25887;30.194;-97.880;2023-12-14T05:53:59;99819.22;;;13.98;47.96
38880;BME280;25887;30.194;-97.880;2023-12-14T05:56:32;99817.50;;;14.00;47.71
38880;BME280;25887;30.194;-97.880;2023-12-14T05:59:02;99820.06;;;14.00;47.77
38880;BME280;25887;30.194;-97.880;2023-12-14T06:01:57;99816.69;;;14.05;47.89
38880;BME280;25887;30.194;-97.880;2023-12-14T06:04:50;99815.81;;;14.02;47.68
38880;BME280;25887;30.194;-97.880;2023-12-14T06:07:16;99814.94;;;14.01;47.54
38880;BME280;25887;30.194;-97.880;2023-12-14T06:09:43;99822.69;;;14.01;47.88
38880;BME280;25887;30.194;-97.880;2023-12-14T06:12:09;99821.84;;;14.02;47.78
38880;BME280;25887;30.194;-97.880;2023-12-14T06:14:38;99816.69;;;14.04;47.88
38880;BME280;25887;30.194;-97.880;2023-12-14T06:17:20;99810.66;;;14.06;47.57
38880;BME280;25887;30.194;-97.880;2023-12-14T06:19:46;99805.47;;;14.03;47.95
38880;BME280;25887;30.194;-97.880;2023-12-14T06:22:13;99803.75;;;14.02;47.99
38880;BME280;25887;30.194;-97.880;2023-12-14T06:24:58;99790.78;;;14.01;47.63
38880;BME280;25887;30.194;-97.880;2023-12-14T06:27:25;99785.63;;;13.99;47.70
38880;BME280;25887;30.194;-97.880;2023-12-14T06:29:52;99794.25;;;14.00;47.66
38880;BME280;25887;30.194;-97.880;2023-12-14T06:32:39;99789.97;;;14.02;47.85
38880;BME280;25887;30.194;-97.880;2023-12-14T06:35:06;99781.31;;;13.97;47.46
38880;BME280;25887;30.194;-97.880;2023-12-14T06:37:32;99789.91;;;13.96;47.54
38880;BME280;25887;30.194;-97.880;2023-12-14T06:40:08;99788.19;;;13.98;47.83
38880;BME280;25887;30.194;-97.880;2023-12-14T06:42:34;99781.28;;;13.93;47.55
38880;BME280;25887;30.194;-97.880;2023-12-14T06:45:07;99783.03;;;13.94;47.75
38880;BME280;25887;30.194;-97.880;2023-12-14T06:47:35;99786.47;;;13.93;47.60
38880;BME280;25887;30.194;-97.880;2023-12-14T06:50:02;99788.19;;;13.94;47.57
38880;BME280;25887;30.194;-97.880;2023-12-14T06:52:43;99793.38;;;13.98;47.83
38880;BME280;25887;30.194;-97.880;2023-12-14T06:55:42;99795.94;;;13.94;47.79
38880;BME280;25887;30.194;-97.880;2023-12-14T06:58:08;99795.94;;;13.93;47.64
38880;BME280;25887;30.194;-97.880;2023-12-14T07:00:39;99802.81;;;13.94;47.45
38880;BME280;25887;30.194;-97.880;2023-12-14T07:06:52;99806.28;;;13.96;47.59
38880;BME280;25887;30.194;-97.880;2023-12-14T07:10:21;99800.19;;;13.92;47.51
38880;BME280;25887;30.194;-97.880;2023-12-14T07:12:58;99790.72;;;13.88;47.47
38880;BME280;25887;30.194;-97.880;2023-12-14T07:15:24;99789.78;;;13.83;47.62
38880;BME280;25887;30.194;-97.880;2023-12-14T07:18:12;99795.88;;;13.87;47.63
38880;BME280;25887;30.194;-97.880;2023-12-14T07:21:35;99791.56;;;13.86;47.43
38880;BME280;25887;30.194;-97.880;2023-12-14T07:24:34;99789.78;;;13.80;47.34
38880;BME280;25887;30.194;-97.880;2023-12-14T07:27:45;99788.91;;;13.81;47.74
38880;BME280;25887;30.194;-97.880;2023-12-14T07:30:35;99793.22;;;13.79;47.74
38880;BME280;25887;30.194;-97.880;2023-12-14T07:33:30;99793.19;;;13.78;47.44
38880;BME280;25887;30.194;-97.880;2023-12-14T07:35:57;99794.88;;;13.74;47.48
38880;BME280;25887;30.194;-97.880;2023-12-14T07:39:03;99794.00;;;13.75;47.59
38880;BME280;25887;30.194;-97.880;2023-12-14T07:41:30;99794.88;;;13.74;47.71
38880;BME280;25887;30.194;-97.880;2023-12-14T07:43:58;99790.56;;;13.73;47.64
38880;BME280;25887;30.194;-97.880;2023-12-14T07:46:46;99791.44;;;13.75;47.27
38880;BME280;25887;30.194;-97.880;2023-12-14T07:49:12;99786.19;;;13.69;47.76
38880;BME280;25887;30.194;-97.880;2023-12-14T07:51:38;99789.63;;;13.68;47.87
38880;BME280;25887;30.194;-97.880;2023-12-14T08:00:24;99781.03;;;13.69;47.76
38880;BME280;25887;30.194;-97.880;2023-12-14T08:03:07;99770.69;;;13.68;47.75
38880;BME280;25887;30.194;-97.880;2023-12-14T08:06:02;99771.63;;;13.74;47.38
38880;BME280;25887;30.194;-97.880;2023-12-14T08:09:35;99772.50;;;13.75;47.80
38880;BME280;25887;30.194;-97.880;2023-12-14T08:12:02;99772.47;;;13.70;47.87
38880;BME280;25887;30.194;-97.880;2023-12-14T08:14:28;99766.41;;;13.68;47.69
38880;BME280;25887;30.194;-97.880;2023-12-14T08:16:54;99766.44;;;13.70;47.78
38880;BME280;25887;30.194;-97.880;2023-12-14T08:19:21;99770.69;;;13.69;47.67
38880;BME280;25887;30.194;-97.880;2023-12-14T08:22:18;99768.16;;;13.72;47.98
38880;BME280;25887;30.194;-97.880;2023-12-14T08:24:48;99770.69;;;13.68;47.72
38880;BME280;25887;30.194;-97.880;2023-12-14T08:27:14;99779.31;;;13.68;48.03
38880;BME280;25887;30.194;-97.880;2023-12-14T08:29:48;99772.41;;;13.69;47.77
38880;BME280;25887;30.194;-97.880;2023-12-14T08:32:22;99779.31;;;13.68;47.87
38880;BME280;25887;30.194;-97.880;2023-12-14T08:34:48;99780.16;;;13.69;48.15
38880;BME280;25887;30.194;-97.880;2023-12-14T08:37:15;99773.28;;;13.69;47.86
38880;BME280;25887;30.194;-97.880;2023-12-14T08:39:41;99774.13;;;13.68;48.06
38880;BME280;25887;30.194;-97.880;2023-12-14T08:42:08;99768.09;;;13.66;48.12
38880;BME280;25887;30.194;-97.880;2023-12-14T08:44:34;99764.66;;;13.65;47.71
38880;BME280;25887;30.194;-97.880;2023-12-14T08:47:00;99764.63;;;13.62;47.84
38880;BME280;25887;30.194;-97.880;2023-12-14T08:49:32;99765.50;;;13.63;47.98
38880;BME280;25887;30.194;-97.880;2023-12-14T08:52:25;99770.69;;;13.66;47.83
38880;BME280;25887;30.194;-97.880;2023-12-14T08:56:03;99762.94;;;13.66;48.10
38880;BME280;25887;30.194;-97.880;2023-12-14T08:59:03;99745.63;;;13.57;47.84
38880;BME280;25887;30.194;-97.880;2023-12-14T09:01:35;99743.91;;;13.55;48.09
38880;BME280;25887;30.194;-97.880;2023-12-14T09:04:01;99755.97;;;13.56;48.02
38880;BME280;25887;30.194;-97.880;2023-12-14T09:06:27;99754.19;;;13.53;48.21
38880;BME280;25887;30.194;-97.880;2023-12-14T09:08:53;99764.56;;;13.56;47.85
38880;BME280;25887;30.194;-97.880;2023-12-14T09:11:19;99757.69;;;13.55;48.24
38880;BME280;25887;30.194;-97.880;2023-12-14T09:13:46;99746.44;;;13.52;48.04
38880;BME280;25887;30.194;-97.880;2023-12-14T09:16:12;99750.78;;;13.54;48.13
38880;BME280;25887;30.194;-97.880;2023-12-14T09:18:38;99749.03;;;13.52;48.29
38880;BME280;25887;30.194;-97.880;2023-12-14T09:21:41;99746.50;;;13.56;47.75
38880;BME280;25887;30.194;-97.880;2023-12-14T09:24:07;99746.44;;;13.52;48.12
38880;BME280;25887;30.194;-97.880;2023-12-14T09:26:35;99737.81;;;13.50;48.00
38880;BME280;25887;30.194;-97.880;2023-12-14T09:29:01;99747.28;;;13.51;48.02
38880;BME280;25887;30.194;-97.880;2023-12-14T09:31:28;99737.81;;;13.51;48.02
38880;BME280;25887;30.194;-97.880;2023-12-14T09:33:54;99736.09;;;13.49;47.94
38880;BME280;25887;30.194;-97.880;2023-12-14T09:36:21;99740.41;;;13.50;48.21
38880;BME280;25887;30.194;-97.880;2023-12-14T09:38:47;99743.84;;;13.49;48.26
38880;BME280;25887;30.194;-97.880;2023-12-14T09:41:13;99737.81;;;13.50;47.67
38880;BME280;25887;30.194;-97.880;2023-12-14T09:43:40;99739.53;;;13.49;47.91
38880;BME280;25887;30.194;-97.880;2023-12-14T09:46:07;99728.34;;;13.49;48.18
38880;BME280;25887;30.194;-97.880;2023-12-14T09:48:34;99721.41;;;13.46;47.85
38880;BME280;25887;30.194;-97.880;2023-12-14T09:51:00;99721.41;;;13.45;47.67
38880;BME280;25887;30.194;-97.880;2023-12-14T09:53:55;99715.38;;;13.46;47.77
38880;BME280;25887;30.194;-97.880;2023-12-14T09:56:46;99708.47;;;13.42;48.00
38880;BME280;25887;30.194;-97.880;2023-12-14T09:59:13;99706.69;;;13.37;48.07
38880;BME280;25887;30.194;-97.880;2023-12-14T10:01:42;99696.38;;;13.36;47.89
38880;BME280;25887;30.194;-97.880;2023-12-14T10:04:31;99697.22;;;13.36;48.21
38880;BME280;25887;30.194;-97.880;2023-12-14T10:07:43;99689.47;;;13.33;48.12
38880;BME280;25887;30.194;-97.880;2023-12-14T10:10:11;99696.34;;;13.31;47.88
38880;BME280;25887;30.194;-97.880;2023-12-14T10:12:52;99693.75;;;13.31;47.90
38880;BME280;25887;30.194;-97.880;2023-12-14T10:15:21;99697.16;;;13.29;48.28
38880;BME280;25887;30.194;-97.880;2023-12-14T10:17:53;99692.00;;;13.27;48.27
38880;BME280;25887;30.194;-97.880;2023-12-14T10:20:29;99689.41;;;13.27;48.07
38880;BME280;25887;30.194;-97.880;2023-12-14T10:22:56;99685.09;;;13.26;47.77
38880;BME280;25887;30.194;-97.880;2023-12-14T10:25:23;99685.09;;;13.23;47.78
38880;BME280;25887;30.194;-97.880;2023-12-14T10:27:52;99682.50;;;13.23;47.82
38880;BME280;25887;30.194;-97.880;2023-12-14T10:30:21;99677.34;;;13.23;48.18
38880;BME280;25887;30.194;-97.880;2023-12-14T10:32:48;99672.94;;;13.19;47.97
38880;BME280;25887;30.194;-97.880;2023-12-14T10:35:15;99677.28;;;13.20;48.32
38880;BME280;25887;30.194;-97.880;2023-12-14T10:37:42;99678.97;;;13.18;48.37
38880;BME280;25887;30.194;-97.880;2023-12-14T10:40:14;99671.22;;;13.18;47.96
38880;BME280;25887;30.194;-97.880;2023-12-14T10:43:09;99680.69;;;13.19;48.09
38880;BME280;25887;30.194;-97.880;2023-12-14T10:45:38;99666.88;;;13.14;48.02
38880;BME280;25887;30.194;-97.880;2023-12-14T10:48:06;99677.22;;;13.16;47.86
38880;BME280;25887;30.194;-97.880;2023-12-14T10:50:33;99675.50;;;13.16;47.88
38880;BME280;25887;30.194;-97.880;2023-12-14T10:53:02;99680.66;;;13.16;48.48
38880;BME280;25887;30.194;-97.880;2023-12-14T10:55:36;99682.41;;;13.17;48.36
38880;BME280;25887;30.194;-97.880;2023-12-14T11:05:05;99679.81;;;13.16;48.20
38880;BME280;25887;30.194;-97.880;2023-12-14T11:08:18;99682.41;;;13.17;47.93
38880;BME280;25887;30.194;-97.880;2023-12-14T11:13:37;99684.09;;;13.15;47.93
38880;BME280;25887;30.194;-97.880;2023-12-14T11:16:05;99682.31;;;13.11;47.83
38880;BME280;25887;30.194;-97.880;2023-12-14T11:18:33;99690.06;;;13.11;48.25
38880;BME280;25887;30.194;-97.880;2023-12-14T11:21:10;99687.47;;;13.11;48.29
38880;BME280;25887;30.194;-97.880;2023-12-14T11:23:56;99696.09;;;13.15;48.09
38880;BME280;25887;30.194;-97.880;2023-12-14T11:26:24;99697.81;;;13.14;48.09
38880;BME280;25887;30.194;-97.880;2023-12-14T11:28:54;99698.72;;;13.16;47.97
38880;BME280;25887;30.194;-97.880;2023-12-14T11:31:20;99715.94;;;13.17;47.87
38880;BME280;25887;30.194;-97.880;2023-12-14T11:33:48;99709.94;;;13.18;48.15
38880;BME280;25887;30.194;-97.880;2023-12-14T11:36:15;99708.25;;;13.20;47.77
38880;BME280;25887;30.194;-97.880;2023-12-14T11:38:42;99720.31;;;13.21;48.20
38880;BME280;25887;30.194;-97.880;2023-12-14T11:41:13;99721.16;;;13.22;47.91
38880;BME280;25887;30.194;-97.880;2023-12-14T11:43:41;99718.56;;;13.20;47.81
38880;BME280;25887;30.194;-97.880;2023-12-14T11:46:09;99718.53;;;13.19;47.91
38880;BME280;25887;30.194;-97.880;2023-12-14T11:48:36;99727.13;;;13.16;48.27
38880;BME280;25887;30.194;-97.880;2023-12-14T11:51:19;99721.97;;;13.19;47.90
38880;BME280;25887;30.194;-97.880;2023-12-14T11:53:49;99715.88;;;13.14;47.76
38880;BME280;25887;30.194;-97.880;2023-12-14T11:56:19;99724.47;;;13.13;47.87
38880;BME280;25887;30.194;-97.880;2023-12-14T11:58:48;99733.91;;;13.09;47.77
38880;BME280;25887;30.194;-97.880;2023-12-14T12:01:16;99736.50;;;13.09;47.88
38880;BME280;25887;30.194;-97.880;2023-12-14T12:03:44;99742.47;;;13.07;48.28
38880;BME280;25887;30.194;-97.880;2023-12-14T12:07:11;99738.19;;;13.07;47.86
38880;BME280;25887;30.194;-97.880;2023-12-14T12:13:04;99751.00;;;13.00;48.15
38880;BME280;25887;30.194;-97.880;2023-12-14T12:15:37;99754.41;;;12.99;47.95
38880;BME280;25887;30.194;-97.880;2023-12-14T12:18:06;99755.22;;;12.95;47.99
38880;BME280;25887;30.194;-97.880;2023-12-14T12:20:43;99750.06;;;12.93;48.13
38880;BME280;25887;30.194;-97.880;2023-12-14T12:23:58;99754.34;;;12.93;47.86
38880;BME280;25887;30.194;-97.880;2023-12-14T12:26:53;99750.00;;;12.90;47.86
38880;BME280;25887;30.194;-97.880;2023-12-14T12:30:10;99748.19;;;12.81;48.14
38880;BME280;25887;30.194;-97.880;2023-12-14T12:32:37;99750.72;;;12.78;48.22
38880;BME280;25887;30.194;-97.880;2023-12-14T12:35:04;99755.03;;;12.78;47.95
38880;BME280;25887;30.194;-97.880;2023-12-14T12:37:34;99759.31;;;12.77;48.04
38880;BME280;25887;30.194;-97.880;2023-12-14T12:40:00;99754.09;;;12.74;48.34
38880;BME280;25887;30.194;-97.880;2023-12-14T12:42:27;99748.06;;;12.72;48.14
38880;BME280;25887;30.194;-97.880;2023-12-14T12:44:55;99759.25;;;12.73;48.46
38880;BME280;25887;30.194;-97.880;2023-12-14T12:47:21;99754.94;;;12.72;47.91
38880;BME280;25887;30.194;-97.880;2023-12-14T12:49:47;99766.13;;;12.72;48.49
38880;BME280;25887;30.194;-97.880;2023-12-14T12:52:15;99767.00;;;12.74;48.24
38880;BME280;25887;30.194;-97.880;2023-12-14T12:54:41;99755.81;;;12.75;48.12
38880;BME280;25887;30.194;-97.880;2023-12-14T12:57:10;99767.91;;;12.76;48.04
38880;BME280;25887;30.194;-97.880;2023-12-14T12:59:41;99770.50;;;12.79;48.49
38880;BME280;25887;30.194;-97.880;2023-12-14T13:02:17;99775.69;;;12.81;48.43
38880;BME280;25887;30.194;-97.880;2023-12-14T13:04:46;99771.38;;;12.80;47.92
38880;BME280;25887;30.194;-97.880;2023-12-14T13:07:12;99770.50;;;12.79;48.24
38880;BME280;25887;30.194;-97.880;2023-12-14T13:09:44;99779.09;;;12.80;48.57
38880;BME280;25887;30.194;-97.880;2023-12-14T13:12:11;99771.38;;;12.78;48.42
38880;BME280;25887;30.194;-97.880;2023-12-14T13:14:40;99772.25;;;12.80;48.18
38880;BME280;25887;30.194;-97.880;2023-12-14T13:17:11;99779.13;;;12.81;48.20
38880;BME280;25887;30.194;-97.880;2023-12-14T13:19:38;99773.09;;;12.79;48.16
38880;BME280;25887;30.194;-97.880;2023-12-14T13:22:16;99769.69;;;12.83;48.01
38880;BME280;25887;30.194;-97.880;2023-12-14T13:25:02;99784.34;;;12.86;48.14
38880;BME280;25887;30.194;-97.880;2023-12-14T13:27:32;99788.59;;;12.82;48.06
38880;BME280;25887;30.194;-97.880;2023-12-14T13:29:58;99786.94;;;12.86;48.29
38880;BME280;25887;30.194;-97.880;2023-12-14T13:32:25;99786.94;;;12.86;47.88
38880;BME280;25887;30.194;-97.880;2023-12-14T13:35:03;99788.69;;;12.89;48.25
38880;BME280;25887;30.194;-97.880;2023-12-14T13:37:30;99801.56;;;12.89;47.86
38880;BME280;25887;30.194;-97.880;2023-12-14T13:40:23;99797.34;;;12.94;47.91
38880;BME280;25887;30.194;-97.880;2023-12-14T13:42:49;99792.13;;;12.91;48.13
38880;BME280;25887;30.194;-97.880;2023-12-14T13:45:15;99788.72;;;12.92;47.71
38880;BME280;25887;30.194;-97.880;2023-12-14T13:47:42;99793.94;;;12.95;48.20
38880;BME280;25887;30.194;-97.880;2023-12-14T13:50:08;99787.06;;;12.95;47.90
38880;BME280;25887;30.194;-97.880;2023-12-14T13:52:54;99783.66;;;12.99;48.26
38880;BME280;25887;30.194;-97.880;2023-12-14T13:55:23;99789.66;;;12.98;47.91
38880;BME280;25887;30.194;-97.880;2023-12-14T13:57:50;99783.69;;;13.01;47.83
38880;BME280;25887;30.194;-97.880;2023-12-14T14:00:38;99770.84;;;13.05;47.90
38880;BME280;25887;30.194;-97.880;2023-12-14T14:10:28;99789.81;;;13.10;47.87
38880;BME280;25887;30.194;-97.880;2023-12-14T14:12:54;99782.06;;;13.09;47.78
38880;BME280;25887;30.194;-97.880;2023-12-14T14:15:48;99798.50;;;13.16;47.61
38880;BME280;25887;30.194;-97.880;2023-12-14T14:18:15;99795.00;;;13.14;47.59
38880;BME280;25887;30.194;-97.880;2023-12-14T14:20:41;99795.88;;;13.14;47.88
38880;BME280;25887;30.194;-97.880;2023-12-14T14:23:07;99794.22;;;13.16;47.88
38880;BME280;25887;30.194;-97.880;2023-12-14T14:25:33;99796.81;;;13.19;48.02
38880;BME280;25887;30.194;-97.880;2023-12-14T14:28:01;99794.28;;;13.22;47.81
38880;BME280;25887;30.194;-97.880;2023-12-14T14:30:28;99797.78;;;13.24;47.81
38880;BME280;25887;30.194;-97.880;2023-12-14T14:32:55;99802.09;;;13.27;47.46
38880;BME280;25887;30.194;-97.880;2023-12-14T14:35:21;99802.97;;;13.29;47.95
38880;BME280;25887;30.194;-97.880;2023-12-14T14:37:49;99815.94;;;13.32;48.02
38880;BME280;25887;30.194;-97.880;2023-12-14T14:40:16;99810.78;;;13.35;47.68
38880;BME280;25887;30.194;-97.880;2023-12-14T14:42:43;99820.28;;;13.37;47.38
38880;BME280;25887;30.194;-97.880;2023-12-14T14:45:11;99820.34;;;13.41;47.85
38880;BME280;25887;30.194;-97.880;2023-12-14T14:47:40;99837.59;;;13.45;47.23
38880;BME280;25887;30.194;-97.880;2023-12-14T14:50:08;99835.00;;;13.46;47.52
38880;BME280;25887;30.194;-97.880;2023-12-14T14:52:35;99841.09;;;13.50;47.31
38880;BME280;25887;30.194;-97.880;2023-12-14T14:55:01;99836.81;;;13.53;47.28
38880;BME280;25887;30.194;-97.880;2023-12-14T14:57:51;99837.75;;;13.60;47.09
38880;BME280;25887;30.194;-97.880;2023-12-14T15:07:41;99827.50;;;13.64;47.37